50NY weather

Old Fort Farm Airport
Hemlock, New York, United States

Public forecast

Using degrees Fahrenheit for public forecast. Weather courtesy of forecast.io.

METAR (pilot weather report)

Closest report is Dansville Municipal Airport, 15.9 nm (29.4 km) SSW. Retrieved 2019/05/19 10:54 UTC (54 minutes ago):

KDSV 191054Z AUTO 16006KT 10SM CLR 17/15 A2992 RMK AO2 SLP136 T01720150

TAF (pilot weather forecast)

Closest forecast is Greater Rochester International Airport, 18.8 nm (34.8 km) NNW. Retrieved 2019/05/19 06:36 UTC (5 hours ago):

TAF KROC 190535Z 1906/2006 11006KT P6SM VCTS BKN070CB WS015/22035KT FM190900 18007KT P6SM SCT250 WS015/22035KT FM191200 20012G22KT P6SM SCT250 FM191400 23008KT P6SM BKN250 FM200200 21010G18KT P6SM VCSH OVC090